createdAt,value
2023-03-01T00:01:13.634Z,101289.03
2023-03-01T00:03:40.512Z,101292.50
2023-03-01T00:06:07.484Z,101290.78
2023-03-01T00:08:34.835Z,101286.41
2023-03-01T00:11:19.402Z,101287.31
2023-03-01T00:13:47.979Z,101289.91
2023-03-01T00:16:18.150Z,101296.88
2023-03-01T00:18:45.057Z,101293.41
2023-03-01T00:21:11.684Z,101292.56
2023-03-01T00:23:39.434Z,101286.47
2023-03-01T00:26:11.935Z,101296.88
2023-03-01T00:28:38.524Z,101296.03
2023-03-01T00:31:17.082Z,101289.09
2023-03-01T00:33:44.284Z,101297.78
2023-03-01T00:36:12.923Z,101290.84
2023-03-01T00:38:41.425Z,101288.28
2023-03-01T00:41:10.162Z,101288.28
2023-03-01T00:43:39.839Z,101292.59
2023-03-01T00:46:09.512Z,101296.97
2023-03-01T00:48:36.552Z,101300.47
2023-03-01T00:51:24.932Z,101300.47
2023-03-01T00:53:53.377Z,101296.13
2023-03-01T00:56:20.207Z,101300.47
2023-03-01T00:58:47.413Z,101299.63
2023-03-01T01:01:20.937Z,101294.41
2023-03-01T01:03:50.058Z,101288.34
2023-03-01T01:06:28.096Z,101294.41
2023-03-01T01:08:56.257Z,101287.47
2023-03-01T01:11:24.379Z,101292.69
2023-03-01T01:13:51.209Z,101286.63
2023-03-01T01:16:20.082Z,101285.75
2023-03-01T01:18:46.793Z,101282.31
2023-03-01T01:21:16.614Z,101280.56
2023-03-01T01:23:44.588Z,101279.69
2023-03-01T01:26:14.013Z,101273.66
2023-03-01T01:28:40.884Z,101271.03
2023-03-01T01:31:07.584Z,101272.75
2023-03-01T01:33:35.289Z,101266.72
2023-03-01T01:36:01.758Z,101268.44
2023-03-01T01:38:28.212Z,101274.53
2023-03-01T01:40:54.691Z,101257.19
2023-03-01T01:43:24.995Z,101257.19
2023-03-01T01:45:55.556Z,101253.69
2023-03-01T01:48:25.166Z,101253.69
2023-03-01T01:51:01.540Z,101250.25
2023-03-01T01:53:29.977Z,101249.38
2023-03-01T01:55:59.551Z,101247.63
2023-03-01T01:58:29.190Z,101249.41
2023-03-01T02:00:55.784Z,101252.00
2023-03-01T02:03:34.285Z,101246.78
2023-03-01T02:06:20.695Z,101252.00
2023-03-01T02:08:49.759Z,101243.34
2023-03-01T02:11:16.550Z,101242.47
2023-03-01T02:13:43.872Z,101239.84
2023-03-01T02:16:14.294Z,101245.09
2023-03-01T02:18:42.864Z,101236.41
2023-03-01T02:21:21.554Z,101230.34
2023-03-01T02:23:48.645Z,101226.00
2023-03-01T02:26:37.914Z,101224.28
2023-03-01T02:29:06.573Z,101228.63
2023-03-01T02:31:42.564Z,101224.31
2023-03-01T02:34:12.811Z,101220.81
2023-03-01T02:36:48.720Z,101222.56
2023-03-01T02:39:23.841Z,101217.38
2023-03-01T02:41:55.055Z,101219.97
2023-03-01T02:44:22.504Z,101220.84
2023-03-01T02:46:52.164Z,101226.94
2023-03-01T02:49:31.531Z,101226.03
2023-03-01T02:52:14.147Z,101220.00
2023-03-01T02:54:52.205Z,101220.88
2023-03-01T02:57:20.511Z,101221.72
2023-03-01T02:59:47.050Z,101216.53
2023-03-01T03:02:37.534Z,101211.31
2023-03-01T03:05:13.190Z,101216.53
2023-03-01T03:07:42.763Z,101205.25
2023-03-01T03:10:13.250Z,101209.59
2023-03-01T03:12:40.193Z,101213.94
2023-03-01T03:15:09.810Z,101215.69
2023-03-01T03:17:41.277Z,101220.00
2023-03-01T03:20:12.833Z,101212.22
2023-03-01T03:22:40.900Z,101213.09
2023-03-01T03:25:11.698Z,101210.47
2023-03-01T03:27:43.691Z,101212.19
2023-03-01T03:30:13.263Z,101217.38
2023-03-01T03:32:41.448Z,101215.66
2023-03-01T03:35:10.433Z,101209.59
2023-03-01T03:37:59.781Z,101213.03
2023-03-01T03:40:28.388Z,101213.91
2023-03-01T03:42:55.785Z,101207.00
2023-03-01T03:45:22.936Z,101213.91
2023-03-01T03:47:49.432Z,101207.84
2023-03-01T03:50:18.712Z,101207.84
2023-03-01T03:52:45.396Z,101202.66
2023-03-01T03:55:13.286Z,101203.53
2023-03-01T03:57:41.493Z,101195.75
2023-03-01T04:00:13.735Z,101189.66
2023-03-01T04:02:44.102Z,101183.59
2023-03-01T04:05:13.037Z,101177.56
2023-03-01T04:07:39.684Z,101172.38
2023-03-01T04:10:09.114Z,101165.41
2023-03-01T04:12:35.893Z,101164.56
2023-03-01T04:15:13.499Z,101162.81
2023-03-01T04:17:42.350Z,101161.09
2023-03-01T04:20:25.454Z,101163.69
2023-03-01T04:22:59.652Z,101161.09
2023-03-01T04:25:26.313Z,101164.56
2023-03-01T04:27:53.119Z,101164.53
2023-03-01T04:30:19.922Z,101168.00
2023-03-01T04:32:46.442Z,101155.00
2023-03-01T04:35:13.001Z,101156.75
2023-03-01T04:37:39.557Z,101164.53
2023-03-01T04:40:13.877Z,101159.34
2023-03-01T04:42:40.301Z,101164.53
2023-03-01T04:45:13.880Z,101165.41
2023-03-01T04:47:42.422Z,101155.03
2023-03-01T04:50:10.071Z,101153.28
2023-03-01T04:52:36.563Z,101153.28
2023-03-01T04:55:04.536Z,101144.63
2023-03-01T04:57:31.707Z,101145.50
2023-03-01T04:59:58.536Z,101142.03
2023-03-01T05:02:25.007Z,101138.56
2023-03-01T05:04:51.618Z,101146.34
2023-03-01T05:07:21.308Z,101136.84
2023-03-01T05:09:47.890Z,101140.31
2023-03-01T05:12:15.411Z,101139.44
2023-03-01T05:14:42.690Z,101141.19
2023-03-01T05:17:09.158Z,101144.63
2023-03-01T05:19:35.844Z,101142.91
2023-03-01T05:22:05.208Z,101143.78
2023-03-01T05:24:34.567Z,101142.91
2023-03-01T05:27:02.459Z,101141.16
2023-03-01T05:29:31.437Z,101140.28
2023-03-01T05:32:01.814Z,101140.28
2023-03-01T08:31:31.395Z,101129.84
2023-03-01T08:34:00.885Z,101129.81
2023-03-01T08:36:30.195Z,101128.03
2023-03-01T08:38:57.232Z,101119.34
2023-03-01T08:41:23.873Z,101126.25
2023-03-01T08:43:50.790Z,101122.75
2023-03-01T08:46:17.405Z,101121.88
2023-03-01T08:48:44.274Z,101115.75
2023-03-01T08:51:17.175Z,101111.41
2023-03-01T08:53:43.879Z,101119.16
2023-03-01T08:56:11.168Z,101120.00
2023-03-01T08:58:38.768Z,101115.63
2023-03-01T09:01:10.216Z,101115.59
2023-03-01T09:03:37.765Z,101119.03
2023-03-01T09:06:05.907Z,101110.34
2023-03-01T09:08:36.129Z,101112.94
2023-03-01T09:11:04.513Z,101113.75
2023-03-01T09:13:32.299Z,101112.88
2023-03-01T09:16:03.718Z,101105.00
2023-03-01T09:18:30.320Z,101118.00
2023-03-01T09:21:14.005Z,101109.28
2023-03-01T09:23:43.483Z,101110.09
2023-03-01T09:26:12.785Z,101100.47
2023-03-01T09:28:45.427Z,101106.50
2023-03-01T09:31:15.821Z,101106.44
2023-03-01T09:33:43.286Z,101095.06
2023-03-01T09:36:13.785Z,101090.66
2023-03-01T09:38:40.673Z,101092.34
2023-03-01T09:41:38.009Z,101093.97
2023-03-01T09:44:14.776Z,101086.03
2023-03-01T09:46:46.332Z,101080.72
2023-03-01T09:49:19.327Z,101086.72
2023-03-01T09:52:05.658Z,101089.25
2023-03-01T09:54:32.338Z,101089.97
2023-03-01T09:57:26.653Z,101080.34
2023-03-01T09:59:59.185Z,101075.88
2023-03-01T10:03:12.690Z,101077.50
2023-03-01T10:05:53.610Z,101089.53
2023-03-01T10:08:44.275Z,101090.28
2023-03-01T10:11:45.933Z,101087.53
2023-03-01T10:14:15.050Z,101089.97
2023-03-01T10:16:51.378Z,101084.59
2023-03-01T10:19:30.272Z,101082.75
2023-03-01T10:22:01.940Z,101080.75
2023-03-01T10:24:32.875Z,101072.75
2023-03-01T10:27:05.415Z,101061.28
2023-03-01T10:29:40.563Z,101054.97
2023-03-01T10:32:07.781Z,101060.84
2023-03-01T10:34:36.575Z,101064.97
2023-03-01T10:37:10.861Z,101049.09
2023-03-01T10:39:37.529Z,101054.03
2023-03-01T10:42:14.789Z,101052.00
2023-03-01T10:44:49.234Z,101061.38
2023-03-01T10:47:21.652Z,101055.84
2023-03-01T10:49:57.108Z,101052.09
2023-03-01T10:52:30.959Z,101050.09
2023-03-01T10:55:02.014Z,101056.78
2023-03-01T10:57:42.314Z,101049.59
2023-03-01T11:00:23.410Z,101054.66
2023-03-01T11:03:05.057Z,101060.56
2023-03-01T11:05:34.532Z,101060.28
2023-03-01T11:08:04.213Z,101060.06
2023-03-01T11:10:33.927Z,101062.56
2023-03-01T11:13:13.483Z,101065.00
2023-03-01T11:15:40.467Z,101064.72
2023-03-01T11:18:31.057Z,101060.28
2023-03-01T11:21:06.097Z,101054.75
2023-03-01T11:23:33.913Z,101055.34
2023-03-01T11:26:06.495Z,101054.31
2023-03-01T11:28:35.817Z,101059.28
2023-03-01T11:31:17.782Z,101062.50
2023-03-01T11:33:56.441Z,101053.34
2023-03-01T11:36:44.941Z,101047.66
2023-03-01T11:39:38.983Z,101040.88
2023-03-01T11:42:43.275Z,101027.78
2023-03-01T11:45:12.863Z,101032.72
2023-03-01T11:47:56.424Z,101025.31
2023-03-01T11:50:49.347Z,101022.66
2023-03-01T11:53:32.540Z,101019.09
2023-03-01T11:56:10.677Z,100999.53
2023-03-01T11:59:14.267Z,101000.44
2023-03-01T12:01:55.633Z,101005.72
2023-03-01T12:04:31.163Z,101000.88
2023-03-01T12:07:02.978Z,100998.75
2023-03-01T12:09:46.451Z,100984.34
2023-03-01T12:12:51.995Z,100983.75
2023-03-01T12:15:29.828Z,100987.66
2023-03-01T12:18:17.746Z,100982.63
2023-03-01T12:21:19.277Z,100973.22
2023-03-01T12:24:25.029Z,100968.81
2023-03-01T12:26:54.495Z,100969.72
2023-03-01T12:29:35.445Z,100965.53
2023-03-01T12:32:08.090Z,100952.88
2023-03-01T12:34:53.268Z,100953.38
2023-03-01T12:37:30.644Z,100950.63
2023-03-01T12:39:59.831Z,100946.16
2023-03-01T12:42:32.283Z,100943.88
2023-03-01T12:45:26.881Z,100949.81
2023-03-01T12:48:13.603Z,100949.88
2023-03-01T12:50:42.714Z,100946.13
2023-03-01T12:53:32.985Z,100946.28
2023-03-01T12:56:03.259Z,100936.97
2023-03-01T12:59:07.437Z,100933.72
2023-03-01T13:01:50.144Z,100930.22
2023-03-01T13:04:40.389Z,100915.66
2023-03-01T13:07:25.847Z,100905.97
2023-03-01T13:10:16.049Z,100907.31
2023-03-01T13:12:48.524Z,100909.13
2023-03-01T13:15:28.371Z,100904.81
2023-03-01T13:18:16.840Z,100899.72
2023-03-01T13:20:43.474Z,100898.31
2023-03-01T13:23:22.406Z,100900.63
2023-03-01T13:26:00.939Z,100892.09
2023-03-01T13:28:45.591Z,100895.16
2023-03-01T13:31:32.272Z,100888.84
2023-03-01T13:33:59.724Z,100890.59
2023-03-01T13:36:30.181Z,100884.53
2023-03-01T13:39:39.545Z,100882.84
2023-03-01T13:42:33.892Z,100879.41
2023-03-01T13:45:01.443Z,100880.47
2023-03-01T13:47:28.950Z,100877.22
2023-03-01T13:50:01.553Z,100871.47
2023-03-01T13:52:44.786Z,100874.44
2023-03-01T13:55:20.438Z,100864.03
2023-03-01T13:57:54.456Z,100858.00
2023-03-01T14:00:39.059Z,100867.50
2023-03-01T14:03:19.282Z,100867.69
2023-03-01T14:06:11.161Z,100862.91
2023-03-01T14:08:42.098Z,100865.69
2023-03-01T14:11:28.127Z,100856.19
2023-03-01T14:14:13.105Z,100859.59
2023-03-01T14:16:54.296Z,100847.84
2023-03-01T14:19:34.587Z,100845.09
2023-03-01T14:22:05.443Z,100846.31
2023-03-01T14:24:35.417Z,100840.03
2023-03-01T14:27:03.098Z,100834.25
2023-03-01T14:29:38.944Z,100832.34
2023-03-01T14:32:22.996Z,100838.22
2023-03-01T14:34:51.414Z,100824.22
2023-03-01T14:37:30.902Z,100829.28
2023-03-01T14:39:59.037Z,100824.03
2023-03-01T14:42:29.236Z,100819.41
2023-03-01T14:44:58.493Z,100817.22
2023-03-01T14:50:17.496Z,100802.84
2023-03-01T14:52:47.755Z,100796.25
2023-03-01T14:55:38.350Z,100794.53
2023-03-01T14:58:10.008Z,100786.22
2023-03-01T15:00:37.140Z,100785.63
2023-03-01T15:03:18.575Z,100774.19
2023-03-01T15:05:45.349Z,100780.13
2023-03-01T15:08:24.738Z,100785.94
2023-03-01T15:11:03.927Z,100779.44
2023-03-01T15:13:34.892Z,100776.47
2023-03-01T15:16:13.598Z,100771.09
2023-03-01T15:18:49.899Z,100780.09
2023-03-01T15:21:24.041Z,100777.44
2023-03-01T15:24:05.472Z,100777.81
2023-03-01T15:26:43.405Z,100780.34
2023-03-01T15:29:22.594Z,100782.56
2023-03-01T15:31:58.598Z,100774.97
2023-03-01T15:34:26.604Z,100787.59
2023-03-01T15:36:55.309Z,100783.72
2023-03-01T15:39:44.083Z,100784.84
2023-03-01T15:42:13.085Z,100767.72
2023-03-01T15:44:46.018Z,100773.09
2023-03-01T15:47:26.902Z,100773.03
2023-03-01T15:49:55.951Z,100773.81
2023-03-01T15:52:30.484Z,100769.13
2023-03-01T15:55:02.418Z,100767.50
2023-03-01T15:57:29.504Z,100770.06
2023-03-01T15:59:56.352Z,100761.94
2023-03-01T16:02:24.960Z,100760.38
2023-03-01T16:04:52.025Z,100766.31
2023-03-01T16:07:18.484Z,100763.00
2023-03-01T16:09:45.046Z,100764.75
2023-03-01T16:12:17.455Z,100765.66
2023-03-01T16:14:44.303Z,100759.88
2023-03-01T16:17:14.154Z,100754.09
2023-03-01T16:19:41.953Z,100757.00
2023-03-01T16:22:11.595Z,100750.97
2023-03-01T16:24:38.499Z,100752.69
2023-03-01T16:27:04.964Z,100754.31
2023-03-01T16:29:31.533Z,100753.22
2023-03-01T16:32:00.832Z,100755.44
2023-03-01T16:34:27.514Z,100753.22
2023-03-01T16:36:54.163Z,100758.13
2023-03-01T16:39:20.685Z,100751.53
2023-03-01T16:41:47.169Z,100751.03
2023-03-01T16:44:13.738Z,100756.66
2023-03-01T16:46:42.739Z,100750.97
2023-03-01T16:49:09.324Z,100749.41
2023-03-01T16:51:36.649Z,100754.03
2023-03-01T16:54:05.448Z,100751.72
2023-03-01T16:56:35.222Z,100753.72
2023-03-01T16:59:04.454Z,100746.19
2023-03-01T17:01:40.410Z,100758.03
2023-03-01T17:04:07.883Z,100752.31
2023-03-01T17:06:34.425Z,100747.47
2023-03-01T17:09:00.944Z,100758.34
2023-03-01T17:11:28.578Z,100749.06
2023-03-01T17:13:55.127Z,100745.97
2023-03-01T17:16:22.969Z,100745.50
2023-03-01T17:18:49.842Z,100748.41
2023-03-01T17:21:16.808Z,100753.19
2023-03-01T17:23:45.513Z,100754.44
2023-03-01T17:26:13.609Z,100754.63
2023-03-01T17:28:40.480Z,100759.31
2023-03-01T17:31:07.980Z,100763.13
2023-03-01T17:33:34.691Z,100762.47
2023-03-01T17:36:02.057Z,100763.59
2023-03-01T17:38:28.671Z,100771.63
2023-03-01T17:40:55.128Z,100777.94
2023-03-01T17:43:21.788Z,100776.38
2023-03-01T17:45:50.644Z,100776.59
2023-03-01T17:48:17.650Z,100781.09
2023-03-01T17:50:44.763Z,100780.44
2023-03-01T17:53:11.965Z,100778.91
2023-03-01T17:55:43.415Z,100782.72
2023-03-01T17:58:12.687Z,100789.09
2023-03-01T18:00:39.524Z,100787.53
2023-03-01T18:03:06.929Z,100786.88
2023-03-01T18:05:35.245Z,100789.75
2023-03-01T18:08:02.128Z,100786.38
2023-03-01T18:10:28.663Z,100789.16
2023-03-01T18:12:55.214Z,100789.31
2023-03-01T18:15:21.849Z,100799.03
2023-03-01T18:17:48.580Z,100794.78
2023-03-01T18:20:16.071Z,100794.94
2023-03-01T18:22:42.808Z,100797.69
2023-03-01T18:25:09.710Z,100798.66
2023-03-01T18:27:37.014Z,100797.03
2023-03-01T18:30:06.894Z,100795.41
2023-03-01T18:32:33.714Z,100790.25
2023-03-01T18:35:00.215Z,100798.22
2023-03-01T18:37:26.669Z,100786.06
2023-03-01T18:39:54.313Z,100790.47
2023-03-01T18:42:21.921Z,100792.31
2023-03-01T18:44:48.950Z,100797.59
2023-03-01T18:47:16.973Z,100794.22
2023-03-01T18:49:44.166Z,100787.38
2023-03-01T18:52:11.293Z,100795.38
2023-03-01T18:54:37.929Z,100791.25
2023-03-01T18:57:05.155Z,100796.75
2023-03-01T18:59:32.125Z,100795.25
2023-03-01T19:01:58.601Z,100795.44
2023-03-01T19:04:25.142Z,100785.97
2023-03-01T19:06:51.670Z,100793.09
2023-03-01T19:09:18.337Z,100790.56
2023-03-01T19:11:44.970Z,100793.31
2023-03-01T19:14:11.529Z,100793.38
2023-03-01T19:16:38.033Z,100787.34
2023-03-01T19:19:08.448Z,100789.13
2023-03-01T19:21:35.459Z,100784.81
2023-03-01T19:24:02.623Z,100783.13
2023-03-01T19:26:30.436Z,100785.75
2023-03-01T19:28:57.408Z,100793.63
2023-03-01T19:31:27.115Z,100801.50
2023-03-01T19:33:57.046Z,100791.09
2023-03-01T19:36:33.757Z,100789.41
2023-03-01T19:39:06.631Z,100792.13
2023-03-01T19:41:33.759Z,100786.03
2023-03-01T19:44:04.482Z,100791.25
2023-03-01T19:46:31.216Z,100790.47
2023-03-01T19:49:00.344Z,100787.88
2023-03-01T19:51:27.448Z,100785.31
2023-03-01T19:53:54.838Z,100777.53
2023-03-01T19:56:21.468Z,100776.81
2023-03-01T19:58:50.160Z,100787.41
2023-03-01T20:01:19.595Z,100780.59
2023-03-01T20:03:46.966Z,100780.72
2023-03-01T20:06:16.692Z,100782.56
2023-03-01T20:08:44.626Z,100785.28
2023-03-01T20:11:13.624Z,100783.66
2023-03-01T20:13:40.495Z,100780.22
2023-03-01T20:16:07.766Z,100777.72
2023-03-01T20:18:34.998Z,100779.56
2023-03-01T20:21:02.796Z,100770.97
2023-03-01T20:23:30.516Z,100765.94
2023-03-01T20:26:06.158Z,100766.94
2023-03-01T20:28:34.588Z,100777.41
2023-03-01T20:31:09.234Z,100769.66
2023-03-01T20:33:35.852Z,100768.75
2023-03-01T20:36:02.913Z,100774.00
2023-03-01T20:38:29.437Z,100781.84
2023-03-01T20:41:05.700Z,100780.09
2023-03-01T20:43:32.953Z,100781.84
2023-03-01T20:46:03.691Z,100777.47
2023-03-01T20:48:30.187Z,100786.13
2023-03-01T20:50:59.725Z,100792.19
2023-03-01T20:53:26.182Z,100795.66
2023-03-01T20:55:52.687Z,100797.38
2023-03-01T20:58:19.205Z,100791.28
2023-03-01T21:00:45.765Z,100800.88
2023-03-01T21:03:12.295Z,100795.66
2023-03-01T21:05:38.847Z,100797.44
2023-03-01T21:08:05.642Z,100797.44
2023-03-01T21:10:33.274Z,100794.88
2023-03-01T21:12:59.758Z,100794.88
2023-03-01T21:15:29.293Z,100797.53
2023-03-01T21:17:56.565Z,100794.94
2023-03-01T21:20:23.485Z,100801.06
2023-03-01T21:22:50.017Z,100796.78
2023-03-01T21:25:16.659Z,100805.53
2023-03-01T21:27:43.440Z,100801.19
2023-03-01T21:30:10.867Z,100796.03
2023-03-01T21:32:37.391Z,100800.41
2023-03-01T21:35:04.124Z,100794.38
2023-03-01T21:37:30.706Z,100779.56
2023-03-01T21:39:57.336Z,100780.47
2023-03-01T21:42:24.060Z,100782.25
2023-03-01T21:44:50.484Z,100774.44
2023-03-01T21:47:17.073Z,100774.47
2023-03-01T21:49:43.664Z,100773.59
2023-03-01T21:52:16.745Z,100765.78
2023-03-01T21:54:44.095Z,100768.47
2023-03-01T21:57:11.261Z,100770.25
2023-03-01T21:59:38.234Z,100772.88
2023-03-01T22:02:05.098Z,100764.25
2023-03-01T22:04:31.529Z,100766.91
2023-03-01T22:06:58.148Z,100777.44
2023-03-01T22:09:24.994Z,100777.47
2023-03-01T22:11:54.442Z,100771.47
2023-03-01T22:14:22.096Z,100769.72
2023-03-01T22:16:51.224Z,100769.75
2023-03-01T22:19:18.207Z,100765.41
2023-03-01T22:21:47.050Z,100767.22
2023-03-01T22:24:15.020Z,100770.72
2023-03-01T22:26:44.395Z,100764.66
2023-03-01T22:29:24.231Z,100764.78
2023-03-01T22:31:51.409Z,100770.84
2023-03-01T22:34:18.692Z,100771.78
2023-03-01T22:36:46.209Z,100762.28
2023-03-01T22:39:15.121Z,100766.66
2023-03-01T22:41:45.453Z,100771.94
2023-03-01T22:44:14.277Z,100769.38
2023-03-01T22:46:41.434Z,100765.06
2023-03-01T22:49:08.900Z,100763.34
2023-03-01T22:51:37.857Z,100763.38
2023-03-01T22:54:05.156Z,100762.56
2023-03-01T22:56:34.846Z,100759.97
2023-03-01T22:59:09.623Z,100755.69
2023-03-01T23:01:37.760Z,100751.34
2023-03-01T23:04:04.639Z,100747.91
2023-03-01T23:06:31.630Z,100747.97
2023-03-01T23:09:01.221Z,100741.03
2023-03-01T23:11:29.541Z,100748.91
2023-03-01T23:13:56.295Z,100745.47
2023-03-01T23:16:26.303Z,100748.16
2023-03-01T23:18:55.476Z,100743.88
2023-03-01T23:21:22.962Z,100745.66
2023-03-01T23:23:49.564Z,100744.84
2023-03-01T23:26:17.565Z,100745.75
2023-03-01T23:28:44.372Z,100748.38
2023-03-01T23:31:13.909Z,100750.16
2023-03-01T23:33:43.371Z,100748.41
2023-03-01T23:36:31.813Z,100751.09
2023-03-01T23:39:05.310Z,100749.31
2023-03-01T23:41:32.756Z,100743.28
2023-03-01T23:44:01.491Z,100742.38
2023-03-01T23:46:31.406Z,100744.19
2023-03-01T23:48:58.573Z,100746.81
2023-03-01T23:51:25.584Z,100749.47
2023-03-01T23:53:59.950Z,100750.41
2023-03-01T23:56:30.107Z,100763.44
2023-03-01T23:59:02.418Z,100766.06
